Time;durP1;ratioP1;P1;durP2;ratioP2;P2;SDS_P1;SDS_P2;PMS_P1;PMS_P2;Temp;Humidity;BMP_temperature;BMP_pressure;BME280_temperature;BME280_humidity;BME280_pressure;Samples;Min_cycle;Max_cycle;Signal;HPM_P1;HPM_P2
2024/04/23 00:02:16;;;;;;;70.10;22.57;;;0.00;99.90;;;;;;5501910;25;20272;-72
2024/04/23 00:05:06;;;;;;;50.10;19.87;;;0.00;1.00;;;;;;5507089;25;20575;-71
2024/04/23 00:07:55;;;;;;;53.87;20.83;;;0.00;1.00;;;;;;5510449;26;20233;-72
2024/04/23 00:10:44;;;;;;;64.30;24.53;;;0.00;41.70;;;;;;5492714;25;20819;-72
2024/04/23 00:13:31;;;;;;;61.00;21.57;;;-0.10;38.60;;;;;;5497875;25;20323;-72
2024/04/23 00:16:20;;;;;;;35.13;15.03;;;-0.10;59.30;;;;;;5487420;26;20537;-72
2024/04/23 00:19:07;;;;;;;31.40;13.57;;;-0.20;99.90;;;;;;5510695;25;20239;-72
2024/04/23 00:21:56;;;;;;;30.13;13.03;;;-0.30;99.90;;;;;;5499077;25;20623;-72
2024/04/23 00:24:46;;;;;;;28.53;12.13;;;-0.50;99.90;;;;;;5511733;25;20349;-72
2024/04/23 00:27:35;;;;;;;31.37;11.67;;;-0.60;99.90;;;;;;5494364;26;20485;-72
2024/04/23 00:30:22;;;;;;;27.47;11.03;;;-0.60;99.90;;;;;;5485591;26;20236;-71
2024/04/23 00:33:11;;;;;;;36.97;13.23;;;-0.60;99.90;;;;;;5482998;26;20817;-71
2024/04/23 00:35:58;;;;;;;28.57;12.10;;;-0.80;99.90;;;;;;5498450;25;20304;-72
2024/04/23 00:38:47;;;;;;;27.83;12.07;;;-0.70;99.90;;;;;;5510168;25;20268;-72
2024/04/23 00:41:36;;;;;;;32.33;13.03;;;-0.80;99.90;;;;;;5509785;26;20706;-72
2024/04/23 00:44:25;;;;;;;28.43;11.97;;;-1.00;99.90;;;;;;5505938;25;20219;-72
2024/04/23 00:47:12;;;;;;;23.40;11.00;;;-1.10;99.90;;;;;;5505849;26;20330;-72
2024/04/23 00:50:02;;;;;;;30.50;10.77;;;-1.20;1.00;;;;;;5514900;25;20219;-72
2024/04/23 00:52:48;;;;;;;22.40;9.57;;;-1.20;99.90;;;;;;5504741;25;20275;-72
2024/04/23 00:55:38;;;;;;;24.97;10.50;;;-1.30;99.90;;;;;;5529633;25;20231;-72
2024/04/23 00:58:27;;;;;;;27.70;10.53;;;-1.30;99.90;;;;;;5538341;25;20770;-72
2024/04/23 01:01:17;;;;;;;41.07;15.07;;;-1.30;1.00;;;;;;5538872;25;20230;-72
2024/04/23 01:04:05;;;;;;;36.87;13.37;;;-1.40;1.00;;;;;;5544973;25;20308;-72
2024/04/23 01:06:54;;;;;;;35.30;13.50;;;-1.50;1.00;;;;;;5535978;25;20286;-72
2024/04/23 01:09:41;;;;;;;31.73;12.63;;;-1.50;1.00;;;;;;5548333;25;20653;-72
2024/04/23 01:12:30;;;;;;;28.77;11.00;;;-1.70;1.00;;;;;;5545523;25;20261;-72
2024/04/23 01:15:20;;;;;;;22.67;9.20;;;-1.80;1.00;;;;;;5564206;25;20281;-72
2024/04/23 01:18:10;;;;;;;22.23;9.43;;;-1.80;1.00;;;;;;5548473;25;20226;-72
2024/04/23 01:20:58;;;;;;;23.27;9.97;;;-1.90;14.30;;;;;;5572364;25;20229;-72
2024/04/23 01:23:48;;;;;;;44.23;16.70;;;-1.80;1.00;;;;;;5545145;25;20271;-72
2024/04/23 01:26:37;;;;;;;53.53;18.63;;;-1.80;22.70;;;;;;5557417;25;20245;-72
2024/04/23 01:29:27;;;;;;;43.47;16.60;;;-1.90;1.00;;;;;;5539296;25;20289;-72
2024/04/23 01:32:13;;;;;;;44.20;16.73;;;-1.90;47.40;;;;;;5478808;25;20312;-73
2024/04/23 01:35:03;;;;;;;44.07;17.03;;;-2.00;99.90;;;;;;5497241;25;20799;-73
2024/04/23 01:37:51;;;;;;;40.73;15.17;;;-2.10;99.90;;;;;;5506721;26;20332;-73
2024/04/23 01:40:40;;;;;;;30.47;13.10;;;-2.10;1.00;;;;;;5508495;25;20236;-72
2024/04/23 01:43:29;;;;;;;36.10;13.80;;;-2.10;1.00;;;;;;5508012;25;20410;-72
2024/04/23 01:46:19;;;;;;;33.53;11.93;;;-2.10;60.40;;;;;;5480420;26;20221;-73
2024/04/23 01:49:05;;;;;;;25.53;10.40;;;-2.20;99.90;;;;;;5498841;26;20829;-73
2024/04/23 01:51:55;;;;;;;25.57;10.23;;;-2.20;1.00;;;;;;5495689;26;20228;-72
2024/04/23 01:54:41;;;;;;;25.10;10.40;;;-2.20;1.00;;;;;;5530618;25;20725;-72
2024/04/23 01:57:31;;;;;;;27.20;11.50;;;-2.10;99.90;;;;;;5545370;25;20260;-72
2024/04/23 02:00:20;;;;;;;35.97;13.10;;;-2.10;1.00;;;;;;5533372;25;20231;-72
2024/04/23 02:03:09;;;;;;;23.20;9.90;;;-2.10;1.00;;;;;;5539239;25;20230;-72
2024/04/23 02:05:56;;;;;;;23.67;9.77;;;-2.10;1.00;;;;;;5537920;25;20231;-72
2024/04/23 02:08:46;;;;;;;27.93;11.20;;;-2.10;1.00;;;;;;5537818;25;20219;-73
2024/04/23 02:11:32;;;;;;;30.67;11.70;;;-2.20;1.00;;;;;;5540489;25;20281;-73
2024/04/23 02:14:22;;;;;;;32.47;12.40;;;-2.20;1.00;;;;;;5554814;25;20226;-73
2024/04/23 02:17:14;;;;;;;26.23;11.67;;;-2.20;1.00;;;;;;5534988;25;20234;-73
2024/04/23 02:20:04;;;;;;;25.03;10.50;;;-2.20;99.90;;;;;;5529122;25;20230;-73
2024/04/23 02:22:51;;;;;;;25.07;10.57;;;-2.20;99.90;;;;;;5529341;25;20328;-73
2024/04/23 02:25:40;;;;;;;24.80;10.50;;;-2.10;99.90;;;;;;5522306;25;20270;-72
2024/04/23 02:28:26;;;;;;;26.47;10.60;;;-2.10;99.90;;;;;;5535599;25;20331;-73
2024/04/23 02:31:16;;;;;;;33.33;12.93;;;-2.20;99.90;;;;;;5537557;25;20639;-73
2024/04/23 02:34:05;;;;;;;32.13;13.23;;;-2.10;1.00;;;;;;5539792;25;20224;-73
2024/04/23 02:36:55;;;;;;;46.47;16.67;;;-2.10;1.00;;;;;;5537578;25;20230;-74
2024/04/23 02:39:41;;;;;;;35.23;13.70;;;-2.10;1.00;;;;;;5523011;25;20339;-73
2024/04/23 02:42:31;;;;;;;29.40;13.50;;;-2.20;1.00;;;;;;5539952;25;20229;-73
2024/04/23 02:45:17;;;;;;;31.43;14.87;;;-2.20;37.50;;;;;;5533030;25;20231;-74
2024/04/23 02:48:07;;;;;;;32.30;15.37;;;-2.20;51.30;;;;;;5550593;25;20222;-73
2024/04/23 02:50:56;;;;;;;36.10;15.77;;;-2.30;99.90;;;;;;5548753;25;20613;-73
2024/04/23 02:53:46;;;;;;;32.50;15.27;;;-2.30;99.90;;;;;;5540017;25;20608;-73
2024/04/23 02:56:32;;;;;;;44.07;18.10;;;-2.20;1.00;;;;;;5528486;25;20556;-73
2024/04/23 02:59:22;;;;;;;34.00;15.07;;;-2.30;1.00;;;;;;5553055;25;20218;-73
2024/04/23 03:02:10;;;;;;;51.73;23.40;;;-2.20;1.00;;;;;;5487910;26;20590;-73
2024/04/23 03:04:59;;;;;;;39.73;18.57;;;-2.00;99.90;;;;;;5517654;25;20619;-73
2024/04/23 03:07:49;;;;;;;41.27;18.60;;;-2.00;19.60;;;;;;5501778;26;20231;-73
2024/04/23 03:10:38;;;;;;;39.67;15.83;;;-2.10;1.00;;;;;;5510048;26;20272;-73
2024/04/23 03:13:25;;;;;;;32.60;16.07;;;-2.10;99.90;;;;;;5504349;25;20842;-73
2024/04/23 03:16:14;;;;;;;44.67;19.10;;;-2.10;99.90;;;;;;5497302;26;20615;-73
2024/04/23 03:19:01;;;;;;;42.53;18.50;;;-2.10;99.90;;;;;;5502138;25;20295;-73
2024/04/23 03:21:52;;;;;;;35.20;16.07;;;-2.10;1.00;;;;;;5510506;25;20776;-73
2024/04/23 03:24:42;;;;;;;35.43;17.00;;;-2.00;1.00;;;;;;5502060;26;20823;-73
2024/04/23 03:27:31;;;;;;;30.97;14.73;;;-1.90;53.70;;;;;;5515980;25;20269;-73
2024/04/23 03:30:18;;;;;;;35.37;14.43;;;-1.80;99.90;;;;;;5507440;26;20878;-73
2024/04/23 03:33:07;;;;;;;36.67;16.60;;;-1.80;1.00;;;;;;5512864;25;20352;-73
2024/04/23 03:35:54;;;;;;;36.23;17.17;;;-1.70;1.00;;;;;;5504768;25;20327;-73
2024/04/23 03:38:43;;;;;;;32.13;16.43;;;-1.50;1.00;;;;;;5511304;26;20278;-73
2024/04/23 03:41:35;;;;;;;40.43;20.00;;;-1.50;99.90;;;;;;5505680;25;20268;-73
2024/04/23 03:44:25;;;;;;;51.67;22.47;;;-1.30;99.90;;;;;;5511827;26;20282;-73
2024/04/23 03:47:14;;;;;;;58.47;25.43;;;-1.30;99.90;;;;;;5538862;25;20234;-73
2024/04/23 03:50:03;;;;;;;57.10;25.37;;;-1.20;99.90;;;;;;5545614;25;20273;-73
2024/04/23 03:52:50;;;;;;;52.37;22.70;;;-1.10;1.00;;;;;;5535683;25;20333;-73
2024/04/23 03:55:39;;;;;;;51.47;25.00;;;-1.00;1.00;;;;;;5533532;25;20807;-73
2024/04/23 03:58:28;;;;;;;47.63;23.70;;;-0.90;1.00;;;;;;5525767;25;20260;-73
2024/04/23 04:01:36;;;;;;;52.53;24.23;;;-0.80;1.00;;;;;;5518129;25;20331;-73
2024/04/23 04:07:31;;;;;;;49.10;23.10;;;-0.60;1.00;;;;;;5505013;25;20763;-73
2024/04/23 04:10:20;;;;;;;51.93;22.63;;;-0.50;99.90;;;;;;5503398;25;20608;-73
2024/04/23 04:13:10;;;;;;;39.93;19.73;;;-0.30;38.90;;;;;;5487991;25;20290;-73
2024/04/23 04:16:02;;;;;;;41.93;21.43;;;-0.20;99.90;;;;;;5494711;25;20230;-73
2024/04/23 04:18:49;;;;;;;44.00;21.23;;;-0.10;99.90;;;;;;5503018;25;20237;-72
2024/04/23 04:21:38;;;;;;;43.23;19.20;;;0.00;99.90;;;;;;5505797;25;20602;-72
2024/04/23 04:24:27;;;;;;;50.20;24.60;;;0.10;99.90;;;;;;5518590;25;20227;-72
2024/04/23 04:27:16;;;;;;;56.33;25.13;;;0.20;1.00;;;;;;5515751;25;20228;-72
2024/04/23 04:30:03;;;;;;;60.53;27.63;;;0.30;99.90;;;;;;5503039;25;21244;-72
2024/04/23 04:32:55;;;;;;;63.20;26.07;;;0.40;1.00;;;;;;5509783;25;20224;-73
2024/04/23 04:35:42;;;;;;;45.37;23.27;;;0.50;1.00;;;;;;5509469;25;20644;-72
2024/04/23 04:38:31;;;;;;;43.97;20.63;;;0.60;99.90;;;;;;5513897;25;20314;-72
2024/04/23 04:41:18;;;;;;;40.57;17.77;;;0.70;99.90;;;;;;5494188;25;20288;-72
2024/04/23 04:44:07;;;;;;;39.07;17.17;;;0.80;91.20;;;;;;5509880;25;20783;-73
2024/04/23 04:46:57;;;;;;;38.67;18.77;;;0.90;1.00;;;;;;5531900;25;20236;-72
2024/04/23 04:49:46;;;;;;;52.37;18.73;;;1.00;1.00;;;;;;5503290;25;20291;-72
2024/04/23 04:52:35;;;;;;;44.43;18.70;;;1.10;1.00;;;;;;5508396;25;20331;-72
2024/04/23 04:55:22;;;;;;;39.47;16.83;;;1.10;1.00;;;;;;5520045;25;20784;-72
2024/04/23 04:58:11;;;;;;;34.60;16.03;;;1.20;1.00;;;;;;5508266;25;20222;-71
2024/04/23 05:00:58;;;;;;;34.57;16.27;;;1.20;1.00;;;;;;5520592;25;20224;-71
2024/04/23 05:03:47;;;;;;;54.47;20.13;;;1.30;1.00;;;;;;5514014;25;20303;-71
2024/04/23 05:06:36;;;;;;;45.80;18.97;;;1.40;1.00;;;;;;5514543;25;20713;-72
2024/04/23 05:09:26;;;;;;;51.50;21.57;;;1.50;99.90;;;;;;5515506;25;20222;-72
2024/04/23 05:12:13;;;;;;;47.70;19.77;;;1.70;99.90;;;;;;5504022;25;20236;-71
2024/04/23 05:15:02;;;;;;;42.80;18.20;;;1.70;99.90;;;;;;5492402;25;20624;-71
2024/04/23 05:17:49;;;;;;;41.43;17.37;;;1.80;99.90;;;;;;5508172;25;20343;-71
2024/04/23 05:20:38;;;;;;;107.43;36.13;;;1.90;99.90;;;;;;5485438;25;20698;-66
2024/04/23 05:23:30;;;;;;;102.60;33.83;;;2.00;99.90;;;;;;5492471;25;21016;-66
2024/04/23 05:26:17;;;;;;;51.10;20.13;;;2.10;93.30;;;;;;5504268;25;20227;-67
2024/04/23 05:29:06;;;;;;;43.73;18.07;;;2.10;99.90;;;;;;5505673;25;20379;-67
2024/04/23 05:35:01;;;;;;;66.17;23.83;;;2.30;99.90;;;;;;5497741;25;20575;-66
2024/04/23 05:37:50;;;;;;;127.73;36.87;;;2.40;1.00;;;;;;5500858;25;20618;-66
2024/04/23 05:40:42;;;;;;;66.67;23.73;;;2.50;1.00;;;;;;5491831;25;20267;-66
2024/04/23 05:43:31;;;;;;;43.80;19.00;;;2.50;1.00;;;;;;5492094;25;20270;-66
2024/04/23 05:46:18;;;;;;;51.37;20.13;;;2.50;1.00;;;;;;5500364;25;20261;-66
2024/04/23 05:49:45;;;;;;;50.23;18.40;;;2.50;1.00;;;;;;5486480;25;20224;-66
2024/04/23 05:53:11;;;;;;;46.23;17.67;;;2.50;1.00;;;;;;5499482;25;20799;-66
2024/04/23 05:56:01;;;;;;;33.27;14.90;;;2.70;1.00;;;;;;5503051;25;20298;-66
2024/04/23 05:58:50;;;;;;;40.10;16.27;;;2.80;1.00;;;;;;5539973;25;20231;-66
2024/04/23 06:01:39;;;;;;;45.53;17.83;;;3.00;1.00;;;;;;5525485;25;20654;-66
2024/04/23 06:04:26;;;;;;;41.40;16.97;;;3.00;1.00;;;;;;5531390;25;20295;-65
2024/04/23 06:07:15;;;;;;;41.80;17.30;;;3.00;1.00;;;;;;5553280;25;20661;-65
2024/04/23 06:10:02;;;;;;;42.60;18.90;;;3.10;1.00;;;;;;5532025;25;20308;-65
2024/04/23 06:12:54;;;;;;;36.40;17.27;;;3.20;1.00;;;;;;5530963;25;20280;-66
2024/04/23 06:15:41;;;;;;;33.30;14.50;;;3.20;1.00;;;;;;5544683;25;20225;-65
2024/04/23 06:18:30;;;;;;;27.60;14.30;;;3.40;1.00;;;;;;5528588;25;20661;-65
2024/04/23 06:21:17;;;;;;;34.27;14.90;;;3.50;99.90;;;;;;5514398;25;20273;-65
2024/04/23 06:24:07;;;;;;;25.53;13.43;;;3.60;99.90;;;;;;5530735;25;20330;-65
2024/04/23 06:26:53;;;;;;;29.90;15.07;;;3.70;99.90;;;;;;5532494;25;20238;-65
2024/04/23 06:29:45;;;;;;;31.87;14.50;;;4.00;99.90;;;;;;5542736;25;20217;-65
2024/04/23 06:32:35;;;;;;;30.60;13.70;;;4.10;99.90;;;;;;5538342;25;20628;-65
2024/04/23 06:35:21;;;;;;;37.50;14.57;;;4.30;99.90;;;;;;5546433;25;20796;-65
2024/04/23 06:38:11;;;;;;;25.30;12.10;;;4.40;99.90;;;;;;5532031;25;20622;-66
2024/04/23 06:40:57;;;;;;;25.90;12.93;;;4.50;80.60;;;;;;5536204;25;20338;-65
2024/04/23 06:43:47;;;;;;;27.90;12.70;;;4.60;99.90;;;;;;5542733;25;20224;-65
2024/04/23 06:46:36;;;;;;;22.20;11.67;;;4.60;1.00;;;;;;5532934;25;20294;-65
2024/04/23 06:49:25;;;;;;;23.60;11.13;;;4.50;44.00;;;;;;5534485;25;20224;-66
2024/04/23 06:52:14;;;;;;;22.00;10.77;;;4.60;94.20;;;;;;5544910;25;20353;-65
2024/04/23 06:55:04;;;;;;;22.17;10.60;;;4.80;27.40;;;;;;5547950;25;20247;-65
2024/04/23 06:57:56;;;;;;;28.90;11.67;;;4.80;1.00;;;;;;5536310;25;20624;-65
2024/04/23 07:00:43;;;;;;;22.90;11.53;;;4.90;6.40;;;;;;5545010;25;20721;-66
2024/04/23 07:03:35;;;;;;;16.97;9.50;;;5.00;4.50;;;;;;5567831;25;20297;-65
2024/04/23 07:06:22;;;;;;;23.97;10.77;;;5.20;1.00;;;;;;5551669;25;20234;-65
2024/04/23 07:09:12;;;;;;;23.07;10.60;;;5.20;1.00;;;;;;5538635;25;20235;-65
2024/04/23 07:11:58;;;;;;;19.23;10.87;;;5.40;1.00;;;;;;5560303;25;20283;-65
2024/04/23 07:14:47;;;;;;;17.77;8.83;;;5.50;1.00;;;;;;5555434;25;20274;-65
2024/04/23 07:17:34;;;;;;;15.00;8.47;;;5.50;1.00;;;;;;5546316;25;20270;-65
2024/04/23 07:20:26;;;;;;;15.73;8.87;;;5.70;1.00;;;;;;5557890;25;20228;-65
2024/04/23 07:23:15;;;;;;;16.97;9.43;;;5.70;1.00;;;;;;5553121;25;20234;-66
2024/04/23 07:26:02;;;;;;;20.33;9.73;;;5.80;1.00;;;;;;5578018;25;20347;-65
2024/04/23 07:28:51;;;;;;;21.53;9.90;;;6.10;1.00;;;;;;5540398;25;20228;-65
2024/04/23 07:31:41;;;;;;;13.83;7.97;;;6.60;1.00;;;;;;5569120;25;20774;-65
2024/04/23 07:34:28;;;;;;;15.27;9.20;;;6.80;1.00;;;;;;5548910;25;20300;-65
2024/04/23 07:37:20;;;;;;;20.27;9.43;;;7.10;1.00;;;;;;5568408;25;20280;-65
2024/04/23 07:40:07;;;;;;;17.17;8.10;;;7.40;1.00;;;;;;5544130;25;20304;-66
2024/04/23 07:42:57;;;;;;;15.83;8.93;;;7.50;1.00;;;;;;5536988;25;20268;-65
2024/04/23 07:45:43;;;;;;;13.73;8.00;;;7.80;1.00;;;;;;5553564;25;20721;-65
2024/04/23 07:48:33;;;;;;;14.33;7.83;;;7.80;1.00;;;;;;5534632;25;20347;-65
2024/04/23 07:51:22;;;;;;;14.80;8.17;;;7.80;1.00;;;;;;5546723;25;20242;-66
2024/04/23 07:54:14;;;;;;;17.03;8.93;;;7.70;1.00;;;;;;5545801;25;20302;-65
2024/04/23 07:57:01;;;;;;;15.37;7.87;;;7.80;1.00;;;;;;5540444;25;20249;-65
2024/04/23 07:59:51;;;;;;;45.97;16.17;;;7.90;1.00;;;;;;5554163;25;20751;-65
2024/04/23 08:02:38;;;;;;;19.07;8.20;;;8.00;1.00;;;;;;5540870;25;20237;-65
2024/04/23 08:05:27;;;;;;;18.50;8.23;;;8.10;1.00;;;;;;5560827;25;20617;-65
2024/04/23 08:08:17;;;;;;;20.67;10.03;;;8.00;1.00;;;;;;5548918;25;20229;-66
2024/04/23 08:11:06;;;;;;;13.77;7.50;;;8.00;1.00;;;;;;5555841;25;20639;-65
2024/04/23 08:13:55;;;;;;;23.03;10.03;;;7.80;1.00;;;;;;5554604;25;20339;-66
2024/04/23 08:16:42;;;;;;;27.53;11.27;;;7.70;1.00;;;;;;5528619;25;20758;-65
2024/04/23 08:19:31;;;;;;;16.70;8.80;;;7.70;1.00;;;;;;5530845;25;20223;-65
2024/04/23 08:22:21;;;;;;;18.07;9.13;;;7.60;1.00;;;;;;5557119;25;20341;-66
2024/04/23 08:25:09;;;;;;;13.93;8.00;;;7.70;1.00;;;;;;5548536;25;20294;-65
2024/04/23 08:28:01;;;;;;;20.17;9.90;;;8.00;1.00;;;;;;5547317;25;20271;-66
2024/04/23 08:30:48;;;;;;;18.97;9.47;;;8.20;1.00;;;;;;5536553;25;20415;-66
2024/04/23 08:33:37;;;;;;;20.30;10.67;;;8.10;1.00;;;;;;5565025;25;20217;-66
2024/04/23 08:36:24;;;;;;;54.97;18.43;;;8.50;1.00;;;;;;5550620;25;20296;-65
2024/04/23 08:39:13;;;;;;;15.20;9.20;;;8.20;1.00;;;;;;5534792;25;20262;-66
2024/04/23 08:42:00;;;;;;;17.60;9.63;;;8.10;1.00;;;;;;5565428;25;20340;-66
2024/04/23 08:44:53;;;;;;;16.67;9.60;;;8.00;1.00;;;;;;5563338;25;20225;-66
2024/04/23 08:47:40;;;;;;;14.50;8.70;;;7.90;1.00;;;;;;5555583;25;20297;-66
2024/04/23 08:50:29;;;;;;;28.23;8.97;;;8.50;1.00;;;;;;5554909;25;20220;-66
2024/04/23 08:53:16;;;;;;;16.33;9.33;;;8.70;1.00;;;;;;5550905;25;20334;-65
2024/04/23 08:56:08;;;;;;;17.30;10.10;;;8.50;1.00;;;;;;5536437;25;20219;-65
2024/04/23 08:58:57;;;;;;;16.10;9.67;;;8.80;1.00;;;;;;5539868;25;20634;-65
2024/04/23 09:01:48;;;;;;;17.40;10.10;;;8.80;1.00;;;;;;5534925;25;20714;-66
2024/04/23 09:04:37;;;;;;;20.77;10.60;;;8.70;1.00;;;;;;5569373;25;20247;-66
2024/04/23 09:07:24;;;;;;;17.40;10.50;;;8.50;1.00;;;;;;5557068;25;20341;-66
2024/04/23 09:10:13;;;;;;;20.77;10.90;;;8.30;1.00;;;;;;5541639;25;20228;-66
2024/04/23 09:13:00;;;;;;;18.77;10.50;;;8.30;1.00;;;;;;5562056;25;20230;-66
2024/04/23 09:15:49;;;;;;;22.00;11.70;;;8.60;1.00;;;;;;5542692;25;20274;-66
2024/04/23 09:18:42;;;;;;;24.50;11.00;;;8.60;1.00;;;;;;5573877;25;20235;-66
2024/04/23 09:21:31;;;;;;;23.30;10.83;;;8.60;1.00;;;;;;5551336;25;20828;-66
2024/04/23 09:24:24;;;;;;;24.07;11.20;;;8.90;1.00;;;;;;5534819;25;20277;-66
2024/04/23 09:27:14;;;;;;;15.87;9.73;;;9.50;1.00;;;;;;5540921;25;20223;-65
2024/04/23 09:30:00;;;;;;;17.07;10.00;;;9.60;1.00;;;;;;5536184;25;20828;-66
2024/04/23 09:32:50;;;;;;;16.33;9.53;;;9.70;1.00;;;;;;5555896;25;20283;-66
2024/04/23 09:35:39;;;;;;;14.90;9.40;;;9.90;1.00;;;;;;5543955;25;20283;-66
2024/04/23 09:38:28;;;;;;;15.93;9.73;;;10.20;1.00;;;;;;5528150;25;20223;-66
2024/04/23 09:41:15;;;;;;;16.47;10.33;;;10.60;1.00;;;;;;5554384;25;20293;-66
2024/04/23 09:44:04;;;;;;;22.50;12.07;;;10.10;1.00;;;;;;5547753;25;20634;-66
2024/04/23 09:46:52;;;;;;;21.73;11.80;;;9.40;1.00;;;;;;5550764;25;20226;-66
2024/04/23 09:49:41;;;;;;;19.97;10.90;;;9.40;1.00;;;;;;5540882;25;20274;-66
2024/04/23 09:52:35;;;;;;;19.27;11.47;;;9.60;1.00;;;;;;5543684;25;20796;-66
2024/04/23 09:55:24;;;;;;;19.33;10.60;;;9.70;1.00;;;;;;5539370;25;20340;-66
2024/04/23 09:58:11;;;;;;;22.77;11.63;;;10.10;1.00;;;;;;5547410;25;20340;-66
2024/04/23 10:01:00;;;;;;;18.73;8.03;;;10.30;1.00;;;;;;5550232;25;20597;-66
2024/04/23 10:03:47;;;;;;;15.93;10.43;;;10.70;1.00;;;;;;5550996;25;20297;-66
2024/04/23 10:06:39;;;;;;;22.87;10.63;;;11.50;1.00;;;;;;5546919;25;20326;-66
2024/04/23 10:09:29;;;;;;;18.20;11.37;;;11.70;1.00;;;;;;5531658;25;20280;-66
2024/04/23 10:12:22;;;;;;;19.13;10.60;;;11.90;1.00;;;;;;5533155;25;20277;-66
2024/04/23 10:15:12;;;;;;;26.73;11.67;;;12.50;1.00;;;;;;5541996;25;20223;-66
2024/04/23 10:18:06;;;;;;;22.33;9.97;;;12.60;1.00;;;;;;5546352;25;20342;-66
2024/04/23 10:20:52;;;;;;;12.93;8.90;;;12.00;1.00;;;;;;5556862;25;20307;-65
2024/04/23 10:23:42;;;;;;;22.40;10.63;;;11.40;1.00;;;;;;5532701;25;20282;-66
2024/04/23 10:26:31;;;;;;;19.90;10.60;;;11.10;1.00;;;;;;5531795;25;20288;-66
2024/04/23 10:29:21;;;;;;;16.33;9.97;;;10.70;1.00;;;;;;5515560;25;20813;-66
2024/04/23 10:32:08;;;;;;;14.83;9.53;;;10.20;1.00;;;;;;5521083;25;20283;-66
2024/04/23 10:34:57;;;;;;;16.27;9.60;;;10.00;1.00;;;;;;5543530;25;20705;-66
2024/04/23 10:37:44;;;;;;;16.67;10.77;;;9.90;1.00;;;;;;5554637;25;20296;-65
2024/04/23 10:40:33;;;;;;;18.07;9.27;;;9.70;1.00;;;;;;5539914;25;20715;-66
2024/04/23 10:43:25;;;;;;;14.83;9.07;;;10.00;1.00;;;;;;5553090;25;20226;-65
2024/04/23 10:46:14;;;;;;;19.43;10.00;;;9.80;1.00;;;;;;5523413;25;20238;-65
2024/04/23 10:49:15;;;;;;;17.17;9.50;;;10.00;1.00;;;;;;5517745;25;20259;-65
2024/04/23 10:52:02;;;;;;;15.03;9.53;;;10.60;1.00;;;;;;5554854;25;20239;-65
2024/04/23 10:54:52;;;;;;;13.77;9.00;;;10.60;1.00;;;;;;5541102;25;20576;-65
2024/04/23 10:57:39;;;;;;;15.70;9.07;;;10.20;1.00;;;;;;5542371;25;20339;-66
2024/04/23 11:00:36;;;;;;;15.13;8.70;;;10.30;1.00;;;;;;5543756;25;20277;-67
2024/04/23 11:03:26;;;;;;;18.07;9.83;;;10.80;1.00;;;;;;5541664;25;20297;-66
2024/04/23 11:06:23;;;;;;;16.87;10.00;;;11.20;1.00;;;;;;5527917;25;20229;-66
2024/04/23 11:09:13;;;;;;;17.77;9.60;;;11.80;1.00;;;;;;5530178;25;20723;-65
2024/04/23 11:12:02;;;;;;;17.73;9.57;;;12.20;1.00;;;;;;5532077;25;20230;-65
2024/04/23 11:14:52;;;;;;;15.97;8.63;;;11.90;1.00;;;;;;5547879;25;20278;-66
2024/04/23 11:17:42;;;;;;;15.63;9.30;;;11.90;1.00;;;;;;5558276;25;20302;-66
2024/04/23 11:20:32;;;;;;;14.93;8.60;;;12.20;1.00;;;;;;5539760;25;20508;-66
2024/04/23 11:23:21;;;;;;;18.03;10.20;;;12.80;1.00;;;;;;5550759;25;20764;-66
2024/04/23 11:26:11;;;;;;;16.17;9.80;;;12.20;1.00;;;;;;5548524;25;20236;-65
2024/04/23 11:28:58;;;;;;;16.87;9.10;;;11.80;1.00;;;;;;5555255;25;20234;-66
2024/04/23 11:31:50;;;;;;;16.00;9.53;;;12.00;1.00;;;;;;5555666;25;20225;-66
2024/04/23 11:34:40;;;;;;;14.30;8.57;;;12.60;1.00;;;;;;5539574;25;20337;-66
2024/04/23 11:37:30;;;;;;;15.33;8.13;;;12.60;1.00;;;;;;5549548;25;20864;-65
2024/04/23 11:40:23;;;;;;;13.30;8.23;;;13.00;1.00;;;;;;5545402;25;20337;-65
2024/04/23 11:43:09;;;;;;;14.50;8.37;;;12.90;1.00;;;;;;5561173;25;20305;-65
2024/04/23 11:45:59;;;;;;;14.57;8.47;;;13.40;1.00;;;;;;5547901;25;20220;-66
2024/04/23 11:48:45;;;;;;;14.37;8.90;;;13.20;99.90;;;;;;5548988;25;20291;-65
2024/04/23 11:51:37;;;;;;;17.63;9.53;;;12.70;99.90;;;;;;5564778;25;20264;-66
2024/04/23 11:54:24;;;;;;;17.50;10.90;;;11.90;1.60;;;;;;5550122;25;20228;-65
2024/04/23 11:57:15;;;;;;;16.47;10.10;;;11.30;1.00;;;;;;5550157;25;20269;-66
2024/04/23 12:00:01;;;;;;;17.07;9.90;;;11.20;1.00;;;;;;5579709;25;20715;-66
2024/04/23 12:02:51;;;;;;;16.57;10.07;;;12.10;1.00;;;;;;5547706;25;20226;-66
2024/04/23 12:05:37;;;;;;;14.50;9.73;;;13.10;1.00;;;;;;5559303;25;20268;-66
2024/04/23 12:08:29;;;;;;;16.63;9.13;;;13.30;99.90;;;;;;5544244;25;20224;-66
2024/04/23 12:11:19;;;;;;;15.60;9.30;;;13.30;99.90;;;;;;5576233;25;20228;-65
2024/04/23 12:14:09;;;;;;;13.50;8.77;;;13.60;99.90;;;;;;5560366;25;20557;-66
2024/04/23 12:16:58;;;;;;;16.17;9.13;;;13.60;99.90;;;;;;5544965;25;20976;-66
2024/04/23 12:19:45;;;;;;;14.50;9.37;;;13.40;99.90;;;;;;5554238;25;20712;-66
2024/04/23 12:22:34;;;;;;;14.27;9.80;;;13.70;99.90;;;;;;5550250;25;20312;-66
2024/04/23 12:25:24;;;;;;;19.67;11.77;;;13.00;99.90;;;;;;5542066;25;20227;-66
2024/04/23 12:28:13;;;;;;;23.33;12.77;;;12.70;99.90;;;;;;5554206;25;20227;-66
2024/04/23 12:31:00;;;;;;;21.00;13.03;;;12.00;99.90;;;;;;5549011;25;20869;-66
2024/04/23 12:33:49;;;;;;;19.23;11.50;;;12.40;99.90;;;;;;5557191;25;20221;-65
2024/04/23 12:36:36;;;;;;;15.70;9.00;;;12.90;99.90;;;;;;5558734;25;20241;-66
2024/04/23 12:39:26;;;;;;;15.17;8.53;;;13.20;99.90;;;;;;5536655;25;20282;-65
2024/04/23 12:42:17;;;;;;;13.57;8.70;;;13.50;99.90;;;;;;5571245;25;20225;-66
2024/04/23 12:45:07;;;;;;;20.80;9.53;;;13.00;99.90;;;;;;5564335;25;20236;-65
2024/04/23 12:47:56;;;;;;;13.40;9.10;;;13.20;1.00;;;;;;5559351;25;20297;-66
2024/04/23 12:50:45;;;;;;;13.93;8.93;;;13.40;99.90;;;;;;5552293;25;20638;-65
2024/04/23 12:53:32;;;;;;;13.00;8.13;;;13.50;99.90;;;;;;5543306;25;20262;-65
2024/04/23 12:56:21;;;;;;;12.87;6.60;;;13.10;99.90;;;;;;5561523;25;20236;-65
2024/04/23 12:59:13;;;;;;;15.20;8.73;;;12.90;98.30;;;;;;5559413;25;20274;-65
2024/04/23 13:02:02;;;;;;;14.37;8.40;;;13.30;99.90;;;;;;5537702;25;20334;-66
2024/04/23 13:04:49;;;;;;;15.70;9.40;;;14.20;99.90;;;;;;5562887;25;20240;-66
2024/04/23 13:07:38;;;;;;;14.40;8.93;;;15.10;99.90;;;;;;5555081;25;20223;-65
2024/04/23 13:10:25;;;;;;;18.07;9.43;;;15.30;99.90;;;;;;5546483;25;20294;-65
2024/04/23 13:13:14;;;;;;;17.27;10.47;;;14.60;99.90;;;;;;5542005;25;20274;-66
2024/04/23 13:16:07;;;;;;;15.03;9.50;;;13.80;99.90;;;;;;5551523;25;20482;-66
2024/04/23 13:18:53;;;;;;;19.13;9.17;;;13.50;99.90;;;;;;5549010;25;20273;-65
2024/04/23 13:21:42;;;;;;;16.47;9.67;;;14.40;99.90;;;;;;5548269;25;20824;-66
2024/04/23 13:24:29;;;;;;;15.13;9.03;;;15.00;99.90;;;;;;5560478;25;20226;-65
2024/04/23 13:27:19;;;;;;;14.63;8.73;;;15.60;99.90;;;;;;5556322;25;20569;-66
2024/04/23 13:30:10;;;;;;;13.33;8.90;;;14.90;99.90;;;;;;5567341;25;20227;-65
2024/04/23 13:33:02;;;;;;;18.10;9.70;;;14.80;99.90;;;;;;5568121;25;20228;-65
2024/04/23 13:35:48;;;;;;;13.07;7.93;;;13.90;99.90;;;;;;5565556;25;20651;-65
2024/04/23 13:38:40;;;;;;;15.27;9.17;;;13.10;99.90;;;;;;5568457;25;20301;-65
2024/04/23 13:41:26;;;;;;;17.13;9.23;;;13.70;99.90;;;;;;5558927;25;20236;-65
2024/04/23 13:44:16;;;;;;;14.50;8.63;;;14.70;99.90;;;;;;5531014;25;20263;-65
2024/04/23 13:47:04;;;;;;;16.87;8.90;;;15.40;99.90;;;;;;5524349;25;20281;-66
2024/04/23 13:49:56;;;;;;;14.97;8.60;;;15.30;99.90;;;;;;5524643;25;20287;-65
2024/04/23 13:52:43;;;;;;;14.37;5.53;;;15.80;99.90;;;;;;5516282;25;20239;-65
2024/04/23 13:55:32;;;;;;;14.37;8.70;;;14.80;99.90;;;;;;5521833;25;20229;-65
2024/04/23 13:58:19;;;;;;;13.87;8.70;;;14.70;99.90;;;;;;5521745;25;20828;-65
2024/04/23 14:01:09;;;;;;;13.60;8.20;;;15.50;99.90;;;;;;5519964;25;20277;-65
2024/04/23 14:03:55;;;;;;;15.47;8.13;;;16.30;99.90;;;;;;5519748;25;20643;-65
2024/04/23 14:06:47;;;;;;;12.37;7.93;;;16.40;99.90;;;;;;5519999;25;20946;-65
2024/04/23 14:09:34;;;;;;;11.77;7.93;;;16.10;99.90;;;;;;5531018;25;20725;-65
2024/04/23 14:12:26;;;;;;;15.40;7.70;;;15.90;99.90;;;;;;5549263;25;20341;-65
2024/04/23 14:15:17;;;;;;;14.10;7.50;;;15.60;99.90;;;;;;5527414;25;20601;-65
2024/04/23 14:18:04;;;;;;;12.87;7.63;;;15.30;99.90;;;;;;5509250;25;20303;-65
2024/04/23 14:20:54;;;;;;;11.57;7.73;;;14.50;99.90;;;;;;5522947;25;20262;-65
2024/04/23 14:23:45;;;;;;;11.80;7.77;;;14.00;99.90;;;;;;5522743;25;20231;-65
2024/04/23 14:26:35;;;;;;;11.13;7.90;;;13.60;99.90;;;;;;5525001;25;20224;-65
2024/04/23 14:29:22;;;;;;;12.13;7.80;;;13.30;99.90;;;;;;5528841;25;20555;-65
2024/04/23 14:32:12;;;;;;;13.73;8.23;;;13.00;99.90;;;;;;5518775;25;20769;-65
2024/04/23 14:35:07;;;;;;;12.43;7.67;;;12.60;99.90;;;;;;5511866;25;20230;-65
2024/04/23 14:37:56;;;;;;;16.40;8.80;;;12.30;99.90;;;;;;5530830;25;20266;-65
2024/04/23 14:40:46;;;;;;;13.37;8.13;;;11.90;99.90;;;;;;5525729;25;20235;-66